createdAt,value
2019-05-11T00:02:20.981Z,91.70
2019-05-11T00:04:48.185Z,91.80
2019-05-11T00:07:15.491Z,91.90
2019-05-11T00:09:57.114Z,92.50
2019-05-11T00:12:11.763Z,92.60
2019-05-11T00:14:38.992Z,92.50
2019-05-11T00:17:06.198Z,92.60
2019-05-11T00:19:33.507Z,92.50
2019-05-11T00:22:00.681Z,92.40
2019-05-11T00:24:29.622Z,92.50
2019-05-11T00:26:56.967Z,92.40
2019-05-11T00:29:24.169Z,92.30
2019-05-11T00:31:51.553Z,92.40
2019-05-11T00:34:18.777Z,92.40
2019-05-11T00:36:45.961Z,92.60
2019-05-11T00:39:13.176Z,92.40
2019-05-11T00:41:40.345Z,92.20
2019-05-11T00:44:07.622Z,92.30
2019-05-11T00:46:34.820Z,92.70
2019-05-11T00:49:02.117Z,92.70
2019-05-11T00:51:29.300Z,92.70
2019-05-11T00:53:56.558Z,92.80
2019-05-11T00:56:23.763Z,93.00
2019-05-11T00:58:51.126Z,93.30
2019-05-11T01:01:18.573Z,93.00
2019-05-11T01:03:45.756Z,93.10
2019-05-11T01:06:13.031Z,93.30
2019-05-11T01:08:40.318Z,93.50
2019-05-11T01:11:07.833Z,93.50
2019-05-11T01:13:35.227Z,93.50
2019-05-11T01:16:02.440Z,93.60
2019-05-11T01:18:29.620Z,93.50
2019-05-11T01:20:56.851Z,93.40
2019-05-11T01:23:24.038Z,93.50
2019-05-11T01:25:51.579Z,93.40
2019-05-11T01:28:18.958Z,93.60
2019-05-11T01:30:46.267Z,93.40
2019-05-11T01:33:13.437Z,93.30
2019-05-11T01:35:40.625Z,93.40
2019-05-11T01:38:07.824Z,93.60
2019-05-11T01:40:35.032Z,93.70
2019-05-11T01:43:02.232Z,93.80
2019-05-11T01:45:29.442Z,94.10
2019-05-11T01:47:56.629Z,93.60
2019-05-11T01:50:25.715Z,93.70
2019-05-11T01:52:52.919Z,93.70
2019-05-11T01:55:20.125Z,93.50
2019-05-11T01:57:47.332Z,93.20
2019-05-11T02:00:14.540Z,93.10
2019-05-11T02:02:41.730Z,93.10
2019-05-11T02:05:27.976Z,93.40
2019-05-11T02:07:55.776Z,93.30
2019-05-11T02:10:23.085Z,93.00
2019-05-11T02:12:50.376Z,93.50
2019-05-11T02:15:17.577Z,93.20
2019-05-11T02:17:44.769Z,93.20
2019-05-11T02:20:12.356Z,93.30
2019-05-11T02:22:39.534Z,93.40
2019-05-11T02:25:07.515Z,93.10
2019-05-11T02:27:34.717Z,93.40
2019-05-11T02:30:02.010Z,93.40
2019-05-11T02:32:29.340Z,93.40
2019-05-11T02:34:56.530Z,93.40
2019-05-11T02:37:23.705Z,93.40
2019-05-11T02:39:50.888Z,93.50
2019-05-11T02:42:18.066Z,93.40
2019-05-11T02:44:45.246Z,93.50
2019-05-11T02:47:12.429Z,93.40
2019-05-11T02:49:39.627Z,93.40
2019-05-11T02:52:06.797Z,93.20
2019-05-11T02:54:35.023Z,92.70
2019-05-11T02:57:02.883Z,93.40
2019-05-11T02:59:30.195Z,93.70
2019-05-11T03:01:57.477Z,93.90
2019-05-11T03:04:24.669Z,94.20
2019-05-11T03:06:51.870Z,93.80
2019-05-11T03:09:19.078Z,93.70
2019-05-11T03:11:55.771Z,93.80
2019-05-11T03:14:17.443Z,93.60
2019-05-11T03:16:44.641Z,93.20
2019-05-11T03:19:11.840Z,93.80
2019-05-11T03:21:39.056Z,93.90
2019-05-11T03:24:06.249Z,93.80
2019-05-11T03:26:33.459Z,93.70
2019-05-11T03:29:00.657Z,93.90
2019-05-11T03:31:27.849Z,94.00
2019-05-11T03:33:55.093Z,94.00
2019-05-11T03:36:22.335Z,94.10
2019-05-11T03:38:49.528Z,94.20
2019-05-11T03:41:16.735Z,94.30
2019-05-11T03:43:44.013Z,94.40
2019-05-11T03:46:11.216Z,94.50
2019-05-11T03:48:38.445Z,94.60
2019-05-11T03:51:05.630Z,94.50
2019-05-11T03:53:32.854Z,94.80
2019-05-11T03:56:00.063Z,94.70
2019-05-11T03:58:27.250Z,94.60
2019-05-11T04:00:54.442Z,94.60
2019-05-11T04:03:21.657Z,94.40
2019-05-11T04:05:48.831Z,94.50
2019-05-11T04:08:16.042Z,94.30
2019-05-11T04:10:43.236Z,94.20
2019-05-11T04:13:10.435Z,94.10
2019-05-11T04:15:37.646Z,94.20
2019-05-11T04:18:04.891Z,94.10
2019-05-11T04:20:32.068Z,94.40
2019-05-11T04:22:59.262Z,94.30
2019-05-11T04:25:26.453Z,94.30
2019-05-11T04:27:53.676Z,94.40
2019-05-11T04:30:21.188Z,94.50
2019-05-11T04:32:48.400Z,94.60
2019-05-11T04:35:15.603Z,94.60
2019-05-11T04:37:42.929Z,94.60
2019-05-11T04:40:11.023Z,94.80
2019-05-11T04:42:54.109Z,94.90
2019-05-11T04:45:08.016Z,95.00
2019-05-11T04:47:35.610Z,94.70
2019-05-11T04:50:03.261Z,94.60
2019-05-11T04:52:30.454Z,94.70
2019-05-11T04:54:57.653Z,94.60
2019-05-11T04:57:25.249Z,95.00
2019-05-11T04:59:52.733Z,94.80
2019-05-11T05:02:19.947Z,94.70
2019-05-11T05:04:47.273Z,95.00
2019-05-11T05:07:16.570Z,94.20
2019-05-11T05:09:44.788Z,94.50
2019-05-11T05:12:14.226Z,94.80
2019-05-11T05:14:41.860Z,94.40
2019-05-11T05:17:09.063Z,94.30
2019-05-11T05:19:36.448Z,94.10
2019-05-11T05:22:03.643Z,94.40
2019-05-11T05:24:30.822Z,94.70
2019-05-11T05:26:58.021Z,94.60
2019-05-11T05:29:25.204Z,94.70
2019-05-11T05:31:52.405Z,94.30
2019-05-11T05:34:19.593Z,93.60
2019-05-11T05:36:46.794Z,93.90
2019-05-11T05:39:13.990Z,93.90
2019-05-11T05:41:42.534Z,92.90
2019-05-11T05:44:09.881Z,92.80
2019-05-11T05:46:37.089Z,92.30
2019-05-11T05:49:04.268Z,92.30
2019-05-11T05:51:31.460Z,92.80
2019-05-11T05:53:58.650Z,93.20
2019-05-11T05:56:25.832Z,92.80
2019-05-11T05:58:53.065Z,92.80
2019-05-11T06:01:20.273Z,92.80
2019-05-11T06:03:47.463Z,93.20
2019-05-11T06:06:14.668Z,93.40
2019-05-11T06:08:43.282Z,93.90
2019-05-11T06:11:10.669Z,94.30
2019-05-11T06:13:45.074Z,94.00
2019-05-11T06:16:06.964Z,92.50
2019-05-11T06:18:34.153Z,92.50
2019-05-11T06:21:01.449Z,92.30
2019-05-11T06:23:28.942Z,92.30
2019-05-11T06:25:56.130Z,92.70
2019-05-11T06:28:23.325Z,92.20
2019-05-11T06:30:50.817Z,91.90
2019-05-11T06:33:18.333Z,92.40
2019-05-11T06:35:45.587Z,92.80
2019-05-11T06:38:12.883Z,91.80
2019-05-11T06:40:40.046Z,91.70
2019-05-11T06:43:07.149Z,90.80
2019-05-11T06:45:34.385Z,90.00
2019-05-11T06:48:01.589Z,90.00
2019-05-11T06:50:28.800Z,89.80
2019-05-11T06:52:56.072Z,90.20
2019-05-11T06:55:23.249Z,88.50
2019-05-11T06:57:50.445Z,86.00
2019-05-11T07:00:17.969Z,83.90
2019-05-11T07:02:45.177Z,83.50
2019-05-11T07:05:12.369Z,81.90
2019-05-11T07:07:47.412Z,80.50
2019-05-11T07:10:09.040Z,81.00
2019-05-11T07:12:36.241Z,79.50
2019-05-11T07:15:03.520Z,77.80
2019-05-11T07:17:30.782Z,78.40
2019-05-11T07:19:57.991Z,79.30
2019-05-11T07:22:25.201Z,79.00
2019-05-11T07:24:52.483Z,79.90
2019-05-11T07:27:19.675Z,79.90
2019-05-11T07:29:46.865Z,79.60
2019-05-11T07:32:21.995Z,77.90
2019-05-11T07:34:43.160Z,77.90
2019-05-11T07:37:10.340Z,78.30
2019-05-11T07:39:38.378Z,79.70
2019-05-11T07:42:07.778Z,81.00
2019-05-11T07:44:38.794Z,80.50
2019-05-11T07:47:03.991Z,78.00
2019-05-11T07:49:31.193Z,81.40
2019-05-11T07:51:58.818Z,79.60
2019-05-11T07:54:28.093Z,77.20
2019-05-11T07:56:55.309Z,74.20
2019-05-11T07:59:22.516Z,74.10
2019-05-11T08:01:49.697Z,75.20
2019-05-11T08:04:18.333Z,75.50
2019-05-11T08:06:47.788Z,76.00
2019-05-11T08:09:14.873Z,75.30
2019-05-11T08:11:42.063Z,76.40
2019-05-11T08:14:09.249Z,76.20
2019-05-11T08:16:38.643Z,75.80
2019-05-11T08:19:08.060Z,75.70
2019-05-11T08:21:35.009Z,75.20
2019-05-11T08:24:02.215Z,75.30
2019-05-11T08:26:29.451Z,76.20
2019-05-11T08:28:57.937Z,75.00
2019-05-11T08:31:27.823Z,76.50
2019-05-11T08:33:54.584Z,77.40
2019-05-11T08:36:21.830Z,74.70
2019-05-11T08:38:49.012Z,75.80
2019-05-11T08:41:18.267Z,76.40
2019-05-11T08:43:45.280Z,76.50
2019-05-11T08:46:12.471Z,77.00
2019-05-11T08:48:39.668Z,76.30
2019-05-11T08:51:08.400Z,77.20
2019-05-11T08:53:35.861Z,76.90
2019-05-11T08:56:03.059Z,78.80
2019-05-11T08:58:30.260Z,79.10
2019-05-11T09:00:58.323Z,79.20
2019-05-11T09:03:28.155Z,77.30
2019-05-11T09:05:54.858Z,78.30
2019-05-11T09:08:22.042Z,78.20
2019-05-11T09:10:49.313Z,78.10
2019-05-11T09:13:18.546Z,77.80
2019-05-11T09:15:48.234Z,78.70
2019-05-11T09:18:15.028Z,79.10
2019-05-11T09:20:43.489Z,79.70
2019-05-11T09:23:10.769Z,78.70
2019-05-11T09:25:38.602Z,78.30
2019-05-11T09:28:05.948Z,79.30
2019-05-11T09:30:33.233Z,80.50
2019-05-11T09:33:00.449Z,82.80
2019-05-11T09:35:29.206Z,84.60
2019-05-11T09:37:58.704Z,86.90
2019-05-11T09:40:28.224Z,87.60
2019-05-11T09:42:54.898Z,88.40
2019-05-11T09:45:22.068Z,89.80
2019-05-11T09:47:49.258Z,88.90
2019-05-11T09:50:17.890Z,89.10
2019-05-11T09:52:45.577Z,90.40
2019-05-11T09:55:14.557Z,90.90
2019-05-11T09:57:41.748Z,91.40
2019-05-11T10:00:09.238Z,92.20
2019-05-11T10:02:38.526Z,93.00
2019-05-11T10:05:08.301Z,93.60
2019-05-11T10:07:37.815Z,94.00
2019-05-11T10:10:05.061Z,94.40
2019-05-11T10:12:32.250Z,94.90
2019-05-11T10:14:59.432Z,94.90
2019-05-11T10:17:28.659Z,95.10
2019-05-11T10:19:58.036Z,95.60
2019-05-11T10:22:24.784Z,96.00
2019-05-11T10:24:51.982Z,96.10
2019-05-11T10:27:19.217Z,96.20
2019-05-11T10:29:48.379Z,96.40
2019-05-11T10:32:18.127Z,96.60
2019-05-11T10:34:44.904Z,96.70
2019-05-11T10:37:12.092Z,96.70
2019-05-11T10:39:39.298Z,97.00
2019-05-11T10:42:08.524Z,97.00
2019-05-11T10:44:35.588Z,97.70
2019-05-11T10:47:03.045Z,97.60
2019-05-11T10:49:30.280Z,97.40
2019-05-11T10:51:58.616Z,97.40
2019-05-11T10:54:28.766Z,97.50
2019-05-11T10:56:57.725Z,96.60
2019-05-11T10:59:24.363Z,96.20
2019-05-11T11:01:51.540Z,96.60
2019-05-11T11:04:18.777Z,96.10
2019-05-11T11:06:48.348Z,95.50
2019-05-11T11:09:17.579Z,96.00
2019-05-11T11:11:44.188Z,95.70
2019-05-11T11:14:11.365Z,95.70
2019-05-11T11:16:42.465Z,95.70
2019-05-11T11:19:07.739Z,95.70
2019-05-11T11:21:35.164Z,96.00
2019-05-11T11:24:02.437Z,95.30
2019-05-11T11:26:29.632Z,96.10
2019-05-11T11:28:58.131Z,96.30
2019-05-11T11:31:25.525Z,96.00
2019-05-11T11:33:55.531Z,95.40
2019-05-11T11:36:21.828Z,95.40
2019-05-11T11:38:49.021Z,95.60
2019-05-11T11:41:18.463Z,95.60
2019-05-11T11:43:45.365Z,94.50
2019-05-11T11:46:12.611Z,94.80
2019-05-11T11:48:39.873Z,95.00
2019-05-11T11:51:08.140Z,94.70
2019-05-11T11:53:35.464Z,94.00
2019-05-11T11:56:02.692Z,95.20
2019-05-11T11:58:29.868Z,94.90
2019-05-11T12:00:58.695Z,95.30
2019-05-11T12:03:27.700Z,94.90
2019-05-11T12:05:55.236Z,94.50
2019-05-11T12:08:22.429Z,94.60
2019-05-11T12:10:49.624Z,94.20
2019-05-11T12:13:18.732Z,94.40
2019-05-11T12:15:48.275Z,94.30
2019-05-11T12:18:15.104Z,94.00
2019-05-11T12:20:42.913Z,93.70
2019-05-11T12:23:10.124Z,93.60
2019-05-11T12:25:40.370Z,94.00
2019-05-11T12:28:08.003Z,93.20
2019-05-11T12:30:37.536Z,93.60
2019-05-11T12:33:04.520Z,93.50
2019-05-11T12:35:31.713Z,93.60
2019-05-11T12:37:58.996Z,93.50
2019-05-11T12:40:28.287Z,93.20
2019-05-11T12:42:55.377Z,93.30
2019-05-11T12:45:25.085Z,93.70
2019-05-11T12:47:52.340Z,93.10
2019-05-11T12:50:19.936Z,93.30
2019-05-11T12:52:47.778Z,93.00
2019-05-11T12:55:15.313Z,92.40
2019-05-11T12:57:43.157Z,92.60
2019-05-11T13:00:10.919Z,92.00
2019-05-11T13:02:38.780Z,92.50
2019-05-11T13:05:08.689Z,92.10
2019-05-11T13:07:35.989Z,92.50
2019-05-11T13:10:03.919Z,92.40
2019-05-11T13:12:31.156Z,93.40
2019-05-11T13:14:58.351Z,92.30
2019-05-11T13:17:34.916Z,91.20
2019-05-11T13:19:54.581Z,91.80
2019-05-11T13:22:21.877Z,91.70
2019-05-11T13:24:49.156Z,91.90
2019-05-11T13:27:17.841Z,91.10
2019-05-11T13:29:45.436Z,90.80
2019-05-11T13:32:12.640Z,91.40
2019-05-11T13:34:39.846Z,90.90
2019-05-11T13:37:08.090Z,91.00
2019-05-11T13:39:37.710Z,91.10
2019-05-11T13:42:04.628Z,91.20
2019-05-11T13:44:31.836Z,91.50
2019-05-11T13:46:58.928Z,91.90
2019-05-11T13:49:28.211Z,92.10
2019-05-11T13:51:55.448Z,91.20
2019-05-11T13:54:22.645Z,92.50
2019-05-11T13:56:49.817Z,91.40
2019-05-11T13:59:18.787Z,90.60
2019-05-11T14:01:47.834Z,90.30
2019-05-11T14:04:17.927Z,91.10
2019-05-11T14:06:44.522Z,90.20
2019-05-11T14:09:11.743Z,90.40
2019-05-11T14:11:39.185Z,90.30
2019-05-11T14:14:07.741Z,88.90
2019-05-11T14:16:35.137Z,90.00
2019-05-11T14:19:02.345Z,89.60
2019-05-11T14:21:29.659Z,87.70
2019-05-11T14:23:58.744Z,88.30
2019-05-11T14:26:27.916Z,89.80
2019-05-11T14:28:55.055Z,90.00
2019-05-11T14:31:22.249Z,87.30
2019-05-11T14:33:49.585Z,88.40
2019-05-11T14:36:18.440Z,88.30
2019-05-11T14:38:45.937Z,88.80
2019-05-11T14:41:13.118Z,87.50
2019-05-11T14:43:40.301Z,88.70
2019-05-11T14:46:08.728Z,88.20
2019-05-11T14:48:36.153Z,87.60
2019-05-11T14:51:03.340Z,87.90
2019-05-11T14:53:30.536Z,87.20
2019-05-11T14:55:58.540Z,87.80
2019-05-11T14:58:27.616Z,86.80
2019-05-11T15:00:55.184Z,88.60
2019-05-11T15:03:22.362Z,87.40
2019-05-11T15:05:49.636Z,86.00
2019-05-11T15:08:18.097Z,85.40
2019-05-11T15:10:45.548Z,87.10
2019-05-11T15:13:12.732Z,87.70
2019-05-11T15:15:40.593Z,88.80
2019-05-11T15:18:08.444Z,87.70
2019-05-11T15:20:35.893Z,89.10
2019-05-11T15:23:03.080Z,89.40
2019-05-11T15:25:30.287Z,89.80
2019-05-11T15:27:58.378Z,89.80
2019-05-11T15:30:25.841Z,88.20
2019-05-11T15:32:53.020Z,88.40
2019-05-11T15:35:20.216Z,88.60
2019-05-11T15:37:48.159Z,90.00
2019-05-11T15:40:19.621Z,90.50
2019-05-11T15:42:48.666Z,91.00
2019-05-11T15:45:18.659Z,91.00
2019-05-11T15:47:48.435Z,90.90
2019-05-11T15:50:18.659Z,90.80
2019-05-11T15:52:45.416Z,91.20
2019-05-11T15:55:13.107Z,91.60
2019-05-11T15:57:40.307Z,92.20
2019-05-11T16:00:11.007Z,92.20
2019-05-11T16:02:41.121Z,92.00
2019-05-11T16:05:08.745Z,91.60
2019-05-11T16:07:38.263Z,91.70
2019-05-11T16:10:07.919Z,91.80
2019-05-11T16:12:35.156Z,92.20
2019-05-11T16:15:03.003Z,91.60
2019-05-11T16:17:30.222Z,91.70
2019-05-11T16:19:58.105Z,92.10
2019-05-11T16:22:27.859Z,92.30
2019-05-11T16:24:54.492Z,92.10
2019-05-11T16:27:21.712Z,92.10
2019-05-11T16:29:48.892Z,92.00
2019-05-11T16:32:16.096Z,92.30
2019-05-11T16:34:43.309Z,92.40
2019-05-11T16:37:10.504Z,92.50
2019-05-11T16:39:38.484Z,91.80
2019-05-11T16:42:08.336Z,91.70
2019-05-11T16:44:34.989Z,91.70
2019-05-11T16:47:02.203Z,91.80
2019-05-11T16:49:32.398Z,90.90
2019-05-11T16:51:58.500Z,91.90
2019-05-11T16:54:27.921Z,92.60
2019-05-11T16:56:55.013Z,92.90
2019-05-11T16:59:22.748Z,93.70
2019-05-11T17:01:50.149Z,93.50
2019-05-11T17:04:19.945Z,94.00
2019-05-11T17:06:48.659Z,94.20
2019-05-11T17:09:18.049Z,94.30
2019-05-11T17:11:45.256Z,94.50
2019-05-11T17:14:12.577Z,94.70
2019-05-11T17:16:39.786Z,95.40
2019-05-11T17:19:07.862Z,95.50
2019-05-11T17:21:37.789Z,95.90
2019-05-11T17:24:04.648Z,95.30
2019-05-11T17:26:31.855Z,95.80
2019-05-11T17:28:59.040Z,96.00
2019-05-11T17:31:26.253Z,96.00
2019-05-11T17:33:53.448Z,96.90
2019-05-11T17:36:20.657Z,96.50
2019-05-11T17:38:48.081Z,96.60
2019-05-11T17:41:15.360Z,96.60
2019-05-11T17:43:42.556Z,96.60
2019-05-11T17:46:09.761Z,97.00
2019-05-11T17:48:38.859Z,97.00
2019-05-11T17:51:18.476Z,97.10
2019-05-11T17:53:37.662Z,97.30
2019-05-11T17:56:04.806Z,97.40
2019-05-11T17:58:31.985Z,97.00
2019-05-11T18:01:00.283Z,97.20
2019-05-11T18:03:27.957Z,97.00
2019-05-11T18:05:55.356Z,97.40
2019-05-11T18:08:22.537Z,96.80
2019-05-11T18:10:49.728Z,96.90
2019-05-11T18:13:16.938Z,97.30
2019-05-11T18:15:44.685Z,97.00
2019-05-11T18:18:12.702Z,96.90
2019-05-11T18:20:39.901Z,97.00
2019-05-11T18:23:08.248Z,97.10
2019-05-11T18:25:38.547Z,97.30
2019-05-11T18:28:05.520Z,97.50
2019-05-11T18:30:32.716Z,97.60
2019-05-11T18:32:59.959Z,98.10
2019-05-11T18:35:27.836Z,98.10
2019-05-11T18:37:55.317Z,98.20
2019-05-11T18:40:22.524Z,98.00
2019-05-11T18:42:49.763Z,97.90
2019-05-11T18:45:18.872Z,98.00
2019-05-11T18:47:48.633Z,98.20
2019-05-11T18:50:29.422Z,98.20
2019-05-11T18:52:44.284Z,98.30
2019-05-11T18:55:11.500Z,98.30
2019-05-11T18:57:38.701Z,98.30
2019-05-11T19:00:08.170Z,98.50
2019-05-11T19:02:37.752Z,98.30
2019-05-11T19:05:05.057Z,98.10
2019-05-11T19:07:32.358Z,98.50
2019-05-11T19:09:59.560Z,98.50
2019-05-11T19:12:27.934Z,98.70
2019-05-11T19:14:55.582Z,98.80
2019-05-11T19:17:22.888Z,98.80
2019-05-11T19:19:50.111Z,98.90
2019-05-11T19:22:18.307Z,98.90
2019-05-11T19:24:47.605Z,98.90
2019-05-11T19:27:14.969Z,99.10
2019-05-11T19:29:43.580Z,99.00
2019-05-11T19:32:11.105Z,99.00
2019-05-11T19:34:38.923Z,99.10
2019-05-11T19:37:08.462Z,99.10
2019-05-11T19:39:35.388Z,99.20
2019-05-11T19:42:02.613Z,99.30
2019-05-11T19:44:29.796Z,99.30
2019-05-11T19:46:58.164Z,99.40
2019-05-11T19:49:27.741Z,99.30
2019-05-11T19:51:54.732Z,99.40
2019-05-11T19:54:22.085Z,99.60
2019-05-11T19:56:52.191Z,99.50
2019-05-11T19:59:18.420Z,99.30
2019-05-11T20:01:45.790Z,99.50
2019-05-11T20:04:13.305Z,99.60
2019-05-11T20:06:40.509Z,99.80
2019-05-11T20:09:08.771Z,99.60
2019-05-11T20:11:38.363Z,99.60
2019-05-11T20:14:07.912Z,99.70
2019-05-11T20:16:35.160Z,99.80
2019-05-11T20:19:02.399Z,99.90
2019-05-11T20:21:29.525Z,99.90
2019-05-11T20:23:57.815Z,99.90
2019-05-11T20:26:25.237Z,99.90
2019-05-11T20:28:52.422Z,99.90
2019-05-11T20:31:19.623Z,99.80
2019-05-11T20:33:47.678Z,99.90
2019-05-11T20:36:15.113Z,99.90
2019-05-11T20:38:42.313Z,99.90
2019-05-11T20:41:09.508Z,99.90
2019-05-11T20:43:36.699Z,99.90
2019-05-11T20:46:03.906Z,99.90
2019-05-11T20:48:31.125Z,99.90
2019-05-11T20:50:58.345Z,99.90
2019-05-11T20:53:25.554Z,99.90
2019-05-11T20:55:52.869Z,99.90
2019-05-11T20:58:20.478Z,99.90
2019-05-11T21:00:49.006Z,99.90
2019-05-11T21:03:16.652Z,99.90
2019-05-11T21:05:43.980Z,99.90
2019-05-11T21:08:11.168Z,99.90
2019-05-11T21:10:38.748Z,99.90
2019-05-11T21:13:08.401Z,99.90
2019-05-11T21:15:35.296Z,99.90
2019-05-11T21:18:02.489Z,99.90
2019-05-11T21:20:29.757Z,99.90
2019-05-11T21:22:57.957Z,99.90
2019-05-11T21:25:25.388Z,99.90
2019-05-11T21:27:52.569Z,99.90
2019-05-11T21:30:19.821Z,99.90
2019-05-11T21:32:47.842Z,99.90
2019-05-11T21:35:15.326Z,99.90
2019-05-11T21:37:42.522Z,99.90
2019-05-11T21:40:09.920Z,99.90
2019-05-11T21:42:38.983Z,99.90
2019-05-11T21:45:09.141Z,99.90
2019-05-11T21:47:38.337Z,99.90
2019-05-11T21:50:05.391Z,99.90
2019-05-11T21:52:32.588Z,99.90
2019-05-11T21:54:59.792Z,99.90
2019-05-11T21:57:27.846Z,99.90
2019-05-11T21:59:57.422Z,99.90
2019-05-11T22:02:24.472Z,99.90
2019-05-11T22:04:51.705Z,99.90
2019-05-11T22:07:18.896Z,99.90
2019-05-11T22:09:46.085Z,99.90
2019-05-11T22:12:13.385Z,99.90
2019-05-11T22:14:40.571Z,99.90
2019-05-11T22:17:07.910Z,99.90
2019-05-11T22:19:35.304Z,99.90
2019-05-11T22:22:02.521Z,99.90
2019-05-11T22:24:29.723Z,99.90
2019-05-11T22:26:57.460Z,99.90
2019-05-11T22:29:26.040Z,99.90
2019-05-11T22:31:53.245Z,99.90
2019-05-11T22:34:20.446Z,99.90
2019-05-11T22:36:47.987Z,99.90
2019-05-11T22:39:20.147Z,99.90
2019-05-11T22:41:44.824Z,99.90
2019-05-11T22:44:12.012Z,99.90
2019-05-11T22:46:39.206Z,99.90
2019-05-11T22:49:08.417Z,99.90
2019-05-11T22:51:35.496Z,99.90
2019-05-11T22:54:02.712Z,99.90
2019-05-11T22:56:29.880Z,99.90
2019-05-11T22:58:58.704Z,99.90
2019-05-11T23:01:28.135Z,99.90
2019-05-11T23:03:55.292Z,99.90
2019-05-11T23:06:22.500Z,99.90
2019-05-11T23:08:53.668Z,99.90
2019-05-11T23:11:18.820Z,99.90
2019-05-11T23:13:47.914Z,99.90
2019-05-11T23:16:15.091Z,99.90
2019-05-11T23:18:42.289Z,99.90
2019-05-11T23:21:09.503Z,99.90
2019-05-11T23:23:36.712Z,99.90
2019-05-11T23:26:03.908Z,99.90
2019-05-11T23:28:31.102Z,99.90
2019-05-11T23:30:58.425Z,99.90
2019-05-11T23:33:27.707Z,99.90
2019-05-11T23:35:54.733Z,99.90
2019-05-11T23:38:21.945Z,99.90
2019-05-11T23:40:49.205Z,99.90
2019-05-11T23:43:18.993Z,99.90
2019-05-11T23:45:45.560Z,99.90
2019-05-11T23:48:12.909Z,99.90
2019-05-11T23:50:40.168Z,99.90
2019-05-11T23:53:10.021Z,99.90
2019-05-11T23:55:38.031Z,99.90
2019-05-11T23:58:05.365Z,99.90
